Time;durP1;ratioP1;P1;durP2;ratioP2;P2;SDS_P1;SDS_P2;PMS_P1;PMS_P2;Temp;Humidity;BMP_temperature;BMP_pressure;BME280_temperature;BME280_humidity;BME280_pressure;Samples;Min_cycle;Max_cycle;Signal;HPM_P1;HPM_P2
2022/06/23 00:01:49;;;;;;;3.88;2.90;;;16.10;99.90;;;;;;5094241;28;20027;-65
2022/06/23 00:04:20;;;;;;;9.38;3.83;;;16.00;99.90;;;;;;5094187;28;20031;-64
2022/06/23 00:06:54;;;;;;;7.18;3.00;;;16.00;99.90;;;;;;5095318;28;20505;-64
2022/06/23 00:09:46;;;;;;;6.43;3.50;;;15.90;99.90;;;;;;5095240;28;20486;-64
2022/06/23 00:12:24;;;;;;;5.78;3.40;;;15.90;99.90;;;;;;5094937;28;20121;-64
2022/06/23 00:20:16;;;;;;;3.65;3.20;;;15.90;99.90;;;;;;5070617;28;20434;-65
2022/06/23 00:22:45;;;;;;;5.88;2.92;;;16.00;99.90;;;;;;5070847;28;20115;-64
2022/06/23 00:25:35;;;;;;;3.80;3.15;;;16.00;99.90;;;;;;5070792;28;20050;-65
2022/06/23 00:28:01;;;;;;;5.07;3.60;;;16.00;99.90;;;;;;5070700;28;20514;-65
2022/06/23 00:30:36;;;;;;;4.05;3.15;;;15.90;99.90;;;;;;5070665;28;20458;-65
2022/06/23 00:33:13;;;;;;;7.18;3.85;;;15.90;99.90;;;;;;5070559;28;20483;-65
2022/06/23 00:35:39;;;;;;;6.00;3.85;;;15.90;99.90;;;;;;5070574;28;20475;-65
2022/06/23 00:38:04;;;;;;;5.38;3.47;;;15.80;99.90;;;;;;5070397;28;20078;-65
2022/06/23 00:40:30;;;;;;;5.90;3.63;;;15.80;99.90;;;;;;5070400;28;20040;-65
2022/06/23 00:43:02;;;;;;;4.78;3.83;;;15.70;99.90;;;;;;5070400;28;20360;-65
2022/06/23 00:45:42;;;;;;;6.63;4.35;;;15.70;99.90;;;;;;5070381;28;20021;-65
2022/06/23 00:48:31;;;;;;;9.02;4.65;;;15.80;99.90;;;;;;5070325;28;20125;-64
2022/06/23 00:51:08;;;;;;;7.50;4.25;;;16.00;99.90;;;;;;5069939;28;20035;-64
2022/06/23 00:53:45;;;;;;;5.60;3.70;;;16.00;99.90;;;;;;5069921;28;20025;-64
2022/06/23 00:56:43;;;;;;;3.78;3.20;;;16.00;99.90;;;;;;5070120;28;20031;-66
2022/06/23 00:59:25;;;;;;;6.88;3.72;;;16.00;99.90;;;;;;5069670;28;20112;-66
2022/06/23 01:02:05;;;;;;;4.47;3.20;;;15.90;99.90;;;;;;5068584;28;20028;-65
2022/06/23 01:04:57;;;;;;;5.97;3.63;;;15.80;99.90;;;;;;5070000;28;20554;-66
2022/06/23 01:07:46;;;;;;;8.45;3.70;;;15.70;99.90;;;;;;5069646;28;20433;-65
2022/06/23 01:10:52;;;;;;;4.55;3.50;;;15.70;99.90;;;;;;5069585;28;20028;-66
2022/06/23 01:13:34;;;;;;;4.43;3.80;;;15.70;99.90;;;;;;5069413;28;20028;-65
2022/06/23 01:16:26;;;;;;;6.63;3.67;;;15.60;99.90;;;;;;5069728;28;20032;-65
2022/06/23 01:19:08;;;;;;;5.28;3.53;;;15.50;99.90;;;;;;5069128;28;20460;-65
2022/06/23 01:21:41;;;;;;;6.43;3.83;;;15.50;99.90;;;;;;5069579;28;20122;-65
2022/06/23 01:24:37;;;;;;;5.43;3.33;;;15.40;99.90;;;;;;5069381;28;20499;-66
2022/06/23 01:27:36;;;;;;;5.82;4.00;;;15.30;99.90;;;;;;5069098;28;20025;-65
2022/06/23 01:30:07;;;;;;;4.70;3.22;;;15.30;99.90;;;;;;5063860;28;20484;-65
2022/06/23 01:32:43;;;;;;;5.68;3.50;;;15.20;99.90;;;;;;5056154;28;20539;-65
2022/06/23 01:35:18;;;;;;;5.80;3.85;;;15.20;99.90;;;;;;5056140;28;20032;-65
2022/06/23 01:37:50;;;;;;;5.38;3.70;;;15.10;99.90;;;;;;5055971;28;20463;-66
2022/06/23 01:40:23;;;;;;;5.82;3.92;;;15.10;99.90;;;;;;5056048;28;20029;-65
2022/06/23 01:43:02;;;;;;;4.53;3.30;;;15.10;99.90;;;;;;5056025;28;20441;-65
2022/06/23 01:45:53;;;;;;;4.40;3.45;;;15.00;99.90;;;;;;5055958;28;20611;-65
2022/06/23 01:49:05;;;;;;;5.38;3.80;;;14.90;99.90;;;;;;5055677;28;20083;-65
2022/06/23 01:51:27;;;;;;;7.40;4.10;;;14.90;99.90;;;;;;5055472;28;20107;-65
2022/06/23 01:54:07;;;;;;;4.95;3.83;;;14.80;99.90;;;;;;5055781;28;20399;-65
2022/06/23 01:56:56;;;;;;;6.70;3.40;;;14.80;99.90;;;;;;5055701;28;20071;-66
2022/06/23 02:02:30;;;;;;;6.90;4.45;;;14.70;99.90;;;;;;5109871;27;20394;-65
2022/06/23 02:05:34;;;;;;;7.82;4.47;;;14.70;99.90;;;;;;5111401;28;20042;-65
2022/06/23 02:08:24;;;;;;;6.20;4.28;;;14.70;99.90;;;;;;5110860;28;20024;-65
2022/06/23 02:11:13;;;;;;;7.45;4.00;;;14.70;99.90;;;;;;5110868;28;20035;-66
2022/06/23 02:13:55;;;;;;;8.73;4.28;;;14.70;99.90;;;;;;5110979;28;20016;-65
2022/06/23 02:16:30;;;;;;;4.55;3.75;;;14.60;99.90;;;;;;5111113;28;20450;-65
2022/06/23 02:19:09;;;;;;;5.20;3.70;;;14.60;99.90;;;;;;5111043;28;20489;-65
2022/06/23 02:22:08;;;;;;;4.72;3.83;;;14.60;99.90;;;;;;5110933;28;20032;-66
2022/06/23 02:24:45;;;;;;;5.13;3.60;;;14.50;99.90;;;;;;5110802;28;20070;-65
2022/06/23 02:27:32;;;;;;;8.10;4.57;;;14.50;99.90;;;;;;5110923;28;20085;-65
2022/06/23 02:30:10;;;;;;;6.15;4.38;;;14.40;99.90;;;;;;5110872;28;20026;-65
2022/06/23 02:33:04;;;;;;;7.05;3.88;;;14.50;99.90;;;;;;5110860;28;20035;-65
2022/06/23 02:38:18;;;;;;;8.02;4.40;;;;;;;;;;5111234;27;20870;-65
2022/06/23 02:40:47;;;;;;;8.32;4.20;;;;;;;;;;5111266;28;20076;-65
2022/06/23 02:43:16;;;;;;;6.65;3.88;;;;;;;;;;5111060;28;20102;-65
2022/06/23 02:45:48;;;;;;;7.28;3.83;;;;;;;;;;5111005;28;20028;-65
2022/06/23 02:48:22;;;;;;;6.80;4.30;;;;;;;;;;5111148;28;20112;-65
2022/06/23 02:50:56;;;;;;;6.22;4.85;;;;;;;;;;5111166;28;20074;-65
2022/06/23 02:53:28;;;;;;;7.07;4.43;;;;;;;;;;5110874;28;20036;-65
2022/06/23 02:56:05;;;;;;;5.43;4.32;;;;;;;;;;5110979;28;20437;-65
2022/06/23 02:58:49;;;;;;;10.77;5.18;;;;;;;;;;5110755;28;20034;-65
2022/06/23 03:01:22;;;;;;;5.40;4.60;;;;;;;;;;5110707;28;20024;-65
2022/06/23 03:03:53;;;;;;;6.93;4.63;;;;;;;;;;5110909;28;20012;-65
2022/06/23 03:06:21;;;;;;;8.15;5.15;;;;;;;;;;5110618;28;20107;-65
2022/06/23 03:09:07;;;;;;;6.20;4.78;;;;;;;;;;5110790;28;20385;-65
2022/06/23 03:11:53;;;;;;;6.68;4.60;;;;;;;;;;5109149;28;20575;-64
2022/06/23 03:14:24;;;;;;;7.47;5.15;;;;;;;;;;5110378;28;20077;-65
2022/06/23 03:16:53;;;;;;;9.82;5.47;;;;;;;;;;5110304;28;20028;-64
2022/06/23 03:19:22;;;;;;;11.02;4.93;;;;;;;;;;5110359;28;20386;-64
2022/06/23 03:21:50;;;;;;;5.47;4.78;;;;;;;;;;5110314;28;20027;-65
2022/06/23 03:24:36;;;;;;;6.90;4.70;;;;;;;;;;5110242;28;20020;-65
2022/06/23 03:27:06;;;;;;;6.15;4.47;;;;;;;;;;5110167;28;20024;-65
2022/06/23 03:29:36;;;;;;;6.25;5.03;;;;;;;;;;5110416;28;20020;-65
2022/06/23 03:34:50;;;;;;;5.10;4.22;;;;;;;;;;5111146;27;20381;-65
2022/06/23 03:37:23;;;;;;;10.23;4.68;;;;;;;;;;5111336;28;20020;-65
2022/06/23 03:42:42;;;;;;;14.10;6.20;;;;;;;;;;5110814;28;20023;-65
2022/06/23 03:45:28;;;;;;;10.55;5.07;;;;;;;;;;5111046;28;20031;-65
2022/06/23 03:47:59;;;;;;;7.60;5.53;;;;;;;;;;5110821;28;20558;-65
2022/06/23 03:50:29;;;;;;;7.90;5.22;;;;;;;;;;5111113;28;20024;-65
2022/06/23 03:53:01;;;;;;;6.97;4.45;;;;;;;;;;5110934;28;20064;-65
2022/06/23 03:55:31;;;;;;;5.93;4.95;;;;;;;;;;5110881;28;20020;-65
2022/06/23 03:57:59;;;;;;;8.73;5.55;;;;;;;;;;5110682;28;20024;-65
2022/06/23 04:00:43;;;;;;;7.38;5.18;;;;;;;;;;5110875;28;20540;-65
2022/06/23 04:03:14;;;;;;;4.57;4.03;;;;;;;;;;5110897;28;20036;-65
2022/06/23 04:05:59;;;;;;;8.05;4.88;;;;;;;;;;5110595;28;20020;-65
2022/06/23 04:08:27;;;;;;;6.55;4.30;;;;;;;;;;5109788;28;20072;-65
2022/06/23 04:10:55;;;;;;;5.90;4.20;;;;;;;;;;5110495;28;20028;-65
2022/06/23 04:13:28;;;;;;;9.93;4.75;;;;;;;;;;5110551;28;20116;-65
2022/06/23 04:15:55;;;;;;;6.30;4.40;;;;;;;;;;5110401;28;20046;-65
2022/06/23 04:18:23;;;;;;;8.05;5.00;;;;;;;;;;5110553;28;20537;-65
2022/06/23 04:20:51;;;;;;;8.88;5.18;;;;;;;;;;5110531;28;20096;-65
2022/06/23 04:23:21;;;;;;;5.97;4.63;;;;;;;;;;5110490;28;20024;-66
2022/06/23 04:25:49;;;;;;;7.53;5.25;;;;;;;;;;5110450;28;20097;-65
2022/06/23 04:28:19;;;;;;;10.85;5.32;;;;;;;;;;5110424;28;20158;-65
2022/06/23 04:30:46;;;;;;;7.35;4.50;;;;;;;;;;5110116;28;20067;-65
2022/06/23 04:33:16;;;;;;;5.55;4.68;;;;;;;;;;5109895;28;20047;-66
2022/06/23 04:35:43;;;;;;;7.13;4.20;;;;;;;;;;5110244;28;20061;-65
2022/06/23 04:38:11;;;;;;;7.13;4.72;;;;;;;;;;5110191;28;20039;-65
2022/06/23 04:41:02;;;;;;;7.63;4.13;;;18.40;99.90;;;;;;5110201;28;20020;-66
2022/06/23 04:43:40;;;;;;;6.38;4.15;;;20.00;99.90;;;;;;5109772;28;20024;-66
2022/06/23 04:46:14;;;;;;;7.57;4.10;;;21.90;99.90;;;;;;5096682;28;20055;-66
2022/06/23 04:51:39;;;;;;;9.30;4.28;;;23.50;95.80;;;;;;5090800;28;20299;-63
2022/06/23 04:54:16;;;;;;;5.07;4.00;;;25.10;87.30;;;;;;5090580;28;20028;-64
2022/06/23 04:56:55;;;;;;;5.88;3.90;;;24.90;86.90;;;;;;5090731;28;20103;-63
2022/06/23 04:59:33;;;;;;;4.20;3.58;;;26.10;82.40;;;;;;5090626;28;20032;-64
2022/06/23 05:02:11;;;;;;;9.38;3.70;;;26.20;80.70;;;;;;5090829;28;20498;-64
2022/06/23 05:04:40;;;;;;;6.18;3.70;;;26.20;77.10;;;;;;5090750;28;20074;-64
2022/06/23 05:07:22;;;;;;;5.30;3.15;;;26.60;76.30;;;;;;5090611;28;20062;-64
2022/06/23 05:09:51;;;;;;;4.80;3.30;;;27.10;74.70;;;;;;5090360;28;20024;-64
2022/06/23 05:12:24;;;;;;;7.38;3.08;;;27.20;71.40;;;;;;5090377;28;20028;-64
2022/06/23 05:17:52;;;;;;;6.57;3.35;;;27.20;69.80;;;;;;5111169;27;20449;-66
2022/06/23 05:20:31;;;;;;;9.87;3.00;;;27.40;70.40;;;;;;5111299;28;20397;-66
2022/06/23 05:22:59;;;;;;;6.60;3.35;;;28.20;67.20;;;;;;5111290;28;20076;-66
2022/06/23 05:25:37;;;;;;;7.25;3.28;;;28.70;65.20;;;;;;5111201;28;20485;-66
2022/06/23 05:28:08;;;;;;;3.80;3.20;;;28.50;64.40;;;;;;5111159;28;20031;-65
2022/06/23 05:30:39;;;;;;;3.95;2.97;;;28.60;64.60;;;;;;5110849;28;20046;-66
2022/06/23 05:33:14;;;;;;;7.85;3.28;;;29.10;62.40;;;;;;5111053;28;20443;-66
2022/06/23 05:35:46;;;;;;;5.05;3.03;;;29.20;61.70;;;;;;5110962;28;20389;-66
2022/06/23 05:38:22;;;;;;;7.22;2.80;;;29.50;60.80;;;;;;5110657;28;20028;-66
2022/06/23 05:40:58;;;;;;;3.80;2.70;;;30.00;59.70;;;;;;5110667;28;20532;-65
2022/06/23 05:43:25;;;;;;;4.68;2.88;;;29.30;59.70;;;;;;5110869;28;20020;-66
2022/06/23 05:45:55;;;;;;;5.05;3.00;;;28.80;60.50;;;;;;5109374;28;20024;-66
2022/06/23 05:48:33;;;;;;;4.32;2.78;;;28.90;60.00;;;;;;5110706;28;20073;-66
2022/06/23 05:51:12;;;;;;;5.07;2.60;;;28.60;60.00;;;;;;5110692;28;20024;-67
2022/06/23 05:56:46;;;;;;;5.30;2.30;;;30.40;58.70;;;;;;5110926;27;20852;-63
2022/06/23 05:59:24;;;;;;;4.25;2.75;;;30.80;57.70;;;;;;5111062;28;20042;-64
2022/06/23 06:02:20;;;;;;;4.03;2.50;;;31.10;57.40;;;;;;5110905;28;20028;-63
2022/06/23 06:04:50;;;;;;;3.97;2.60;;;30.70;56.30;;;;;;5110783;28;20394;-64
2022/06/23 06:07:20;;;;;;;3.65;2.33;;;30.80;57.20;;;;;;5110809;28;20016;-64
2022/06/23 06:09:46;;;;;;;3.90;2.40;;;31.10;57.00;;;;;;5111111;28;20054;-64
2022/06/23 06:12:22;;;;;;;5.05;2.20;;;31.10;56.60;;;;;;5110851;28;20132;-63
2022/06/23 06:14:54;;;;;;;4.30;2.60;;;31.10;56.80;;;;;;5110768;28;20032;-63
2022/06/23 06:17:23;;;;;;;6.25;2.50;;;30.70;57.00;;;;;;5110963;28;20501;-63
2022/06/23 06:19:52;;;;;;;5.78;2.28;;;30.40;58.60;;;;;;5110766;28;20020;-63
2022/06/23 06:22:57;;;;;;;3.22;2.20;;;31.60;56.60;;;;;;5110734;28;20474;-63
2022/06/23 06:25:32;;;;;;;4.35;2.30;;;31.10;55.70;;;;;;5102353;28;20095;-63
2022/06/23 06:28:19;;;;;;;3.20;2.13;;;31.90;55.90;;;;;;5106721;28;20034;-63
2022/06/23 06:31:00;;;;;;;3.88;2.17;;;32.30;54.50;;;;;;5101638;28;20020;-64
2022/06/23 06:33:53;;;;;;;3.05;2.25;;;32.60;54.40;;;;;;5105656;28;20032;-63
2022/06/23 06:36:43;;;;;;;3.60;2.25;;;33.00;53.70;;;;;;5099251;28;20040;-65
2022/06/23 06:39:32;;;;;;;3.97;2.10;;;33.60;52.80;;;;;;5103720;28;20019;-64
2022/06/23 06:42:03;;;;;;;3.80;2.08;;;33.90;52.30;;;;;;5102794;28;20497;-64
2022/06/23 06:44:30;;;;;;;6.10;2.40;;;33.30;53.00;;;;;;5106919;27;20478;-64
2022/06/23 06:46:56;;;;;;;4.30;2.35;;;33.30;52.30;;;;;;5110722;28;20020;-65
2022/06/23 06:49:24;;;;;;;3.92;2.05;;;32.20;53.20;;;;;;5106659;28;20114;-64
2022/06/23 06:51:53;;;;;;;4.95;2.10;;;33.70;52.50;;;;;;5109458;28;20179;-65
2022/06/23 06:54:27;;;;;;;4.85;2.03;;;33.80;51.80;;;;;;5104511;28;20446;-64
2022/06/23 06:56:56;;;;;;;3.97;1.88;;;33.70;51.50;;;;;;5108800;28;20441;-64
2022/06/23 06:59:37;;;;;;;3.38;1.70;;;34.60;50.90;;;;;;5109292;28;20024;-64
2022/06/23 07:02:26;;;;;;;3.67;1.95;;;33.70;51.70;;;;;;5106351;28;20028;-64
2022/06/23 07:05:00;;;;;;;4.15;2.17;;;34.10;50.60;;;;;;5098145;28;20036;-66
2022/06/23 07:07:32;;;;;;;4.88;2.00;;;34.00;51.00;;;;;;5092827;28;20047;-66
2022/06/23 07:10:02;;;;;;;;;;;33.50;50.60;;;;;;5095885;28;20028;-65
2022/06/23 07:12:35;;;;;;;3.53;1.83;;;33.60;51.40;;;;;;5095614;28;20003;-66
2022/06/23 07:15:27;;;;;;;10.02;2.60;;;34.20;51.00;;;;;;5103167;28;20111;-66
2022/06/23 07:18:15;;;;;;;7.43;2.33;;;34.90;49.80;;;;;;5087875;28;20028;-66
2022/06/23 07:21:14;;;;;;;3.45;1.85;;;34.10;50.50;;;;;;5087910;28;20483;-66
2022/06/23 07:24:03;;;;;;;4.53;1.90;;;34.00;50.90;;;;;;5093539;28;20157;-66
2022/06/23 07:26:40;;;;;;;5.20;1.98;;;33.60;51.50;;;;;;5082143;28;20078;-66
2022/06/23 07:29:23;;;;;;;3.25;1.98;;;34.20;51.10;;;;;;5095432;28;20039;-63
2022/06/23 07:34:56;;;;;;;5.10;1.95;;;34.90;49.00;;;;;;5070091;28;20365;-63
2022/06/23 07:37:28;;;;;;;3.28;1.75;;;35.80;49.10;;;;;;5069476;28;20499;-63
2022/06/23 07:39:59;;;;;;;;;;;35.70;49.10;;;;;;5086893;28;20024;-64
2022/06/23 07:42:50;;;;;;;7.55;2.13;;;35.60;49.70;;;;;;5074966;28;20300;-63
2022/06/23 07:45:28;;;;;;;3.35;2.05;;;35.70;48.40;;;;;;5077345;28;20087;-63
2022/06/23 07:47:54;;;;;;;4.55;2.05;;;35.40;48.30;;;;;;5085019;28;20459;-63
2022/06/23 07:50:20;;;;;;;3.28;2.10;;;34.30;50.30;;;;;;5070509;28;20098;-63
2022/06/23 07:52:48;;;;;;;4.38;1.85;;;34.40;50.30;;;;;;5078017;28;20028;-63
2022/06/23 07:55:22;;;;;;;7.15;2.00;;;34.80;50.20;;;;;;5073575;28;20372;-64
2022/06/23 07:57:48;;;;;;;6.65;1.92;;;35.00;49.70;;;;;;5086689;28;20478;-64
2022/06/23 08:00:15;;;;;;;4.65;2.50;;;35.30;51.30;;;;;;5071758;28;20021;-64
2022/06/23 08:03:03;;;;;;;4.78;1.95;;;35.50;49.30;;;;;;5082513;28;20025;-63
2022/06/23 08:05:36;;;;;;;6.03;2.10;;;35.40;49.60;;;;;;5068391;28;20028;-64
2022/06/23 08:08:04;;;;;;;10.55;2.42;;;35.90;48.70;;;;;;5072597;28;20059;-64
2022/06/23 08:10:31;;;;;;;2.70;2.20;;;35.70;49.90;;;;;;5084037;28;20031;-63
2022/06/23 08:13:04;;;;;;;4.28;2.25;;;35.20;48.00;;;;;;5065407;28;20025;-63
2022/06/23 08:18:54;;;;;;;3.83;2.13;;;36.30;48.90;;;;;;5076581;28;20028;-63
2022/06/23 08:21:26;;;;;;;4.13;2.15;;;35.80;48.40;;;;;;5074437;28;20103;-64
2022/06/23 08:23:58;;;;;;;7.38;2.00;;;36.40;48.50;;;;;;5070096;28;20542;-64
2022/06/23 08:26:24;;;;;;;3.97;2.13;;;36.70;47.90;;;;;;5084095;28;20099;-63
2022/06/23 08:28:55;;;;;;;5.15;2.20;;;36.70;49.10;;;;;;5076068;28;20448;-64
2022/06/23 08:31:21;;;;;;;4.82;2.05;;;37.10;47.20;;;;;;5078364;28;20495;-65
2022/06/23 08:33:47;;;;;;;6.93;2.30;;;37.10;48.10;;;;;;5085414;28;20102;-63
2022/06/23 08:36:17;;;;;;;4.53;2.25;;;36.80;47.40;;;;;;5070864;28;20024;-63
2022/06/23 08:38:51;;;;;;;6.07;2.03;;;36.70;47.30;;;;;;5068733;28;20025;-63
2022/06/23 08:41:40;;;;;;;4.45;2.20;;;36.80;47.40;;;;;;5079753;28;20025;-63
2022/06/23 08:44:32;;;;;;;5.28;2.53;;;36.40;47.60;;;;;;5083952;28;20512;-63
2022/06/23 08:47:09;;;;;;;2.55;2.28;;;36.20;47.40;;;;;;5058577;28;20147;-63
2022/06/23 08:49:41;;;;;;;3.10;2.20;;;36.00;48.10;;;;;;5055830;28;20039;-63
2022/06/23 08:52:34;;;;;;;5.70;2.80;;;36.10;48.80;;;;;;5068643;28;20112;-63
2022/06/23 08:55:19;;;;;;;4.45;2.17;;;37.40;48.00;;;;;;5064600;28;20085;-63
2022/06/23 08:57:55;;;;;;;2.78;1.95;;;37.40;47.10;;;;;;5058748;28;20060;-64
2022/06/23 09:00:59;;;;;;;3.95;2.50;;;37.20;46.10;;;;;;5048838;28;20501;-63
2022/06/23 09:03:40;;;;;;;4.07;2.40;;;36.50;46.50;;;;;;5061340;28;20495;-64
2022/06/23 09:06:34;;;;;;;7.55;2.75;;;36.90;46.70;;;;;;5071611;28;20031;-63
2022/06/23 09:09:32;;;;;;;6.95;2.75;;;37.40;45.90;;;;;;5058450;28;20043;-64
2022/06/23 09:15:12;;;;;;;5.13;2.70;;;36.80;47.10;;;;;;5107036;27;20401;-64
2022/06/23 09:18:13;;;;;;;4.10;2.60;;;36.70;46.00;;;;;;5123143;28;20039;-63
2022/06/23 09:21:04;;;;;;;2.40;2.20;;;36.00;46.80;;;;;;5104433;28;20032;-64
2022/06/23 09:23:57;;;;;;;4.80;2.58;;;36.70;46.30;;;;;;5103193;28;20540;-64
2022/06/23 09:26:38;;;;;;;4.00;2.40;;;36.00;46.50;;;;;;5114250;28;20016;-64
2022/06/23 09:29:22;;;;;;;4.70;2.60;;;35.70;47.30;;;;;;5127139;28;20402;-64
2022/06/23 09:31:59;;;;;;;6.50;2.65;;;35.90;47.40;;;;;;5110752;27;20386;-65
2022/06/23 09:34:52;;;;;;;5.88;2.47;;;36.00;47.10;;;;;;5119200;27;20435;-66
2022/06/23 09:37:39;;;;;;;5.47;2.58;;;35.60;48.70;;;;;;5111085;27;20509;-64
2022/06/23 09:40:35;;;;;;;5.75;2.80;;;36.40;48.10;;;;;;5122985;28;20012;-63
2022/06/23 09:43:33;;;;;;;5.15;2.88;;;35.00;49.20;;;;;;5118546;28;20030;-66
2022/06/23 09:46:26;;;;;;;5.88;2.40;;;36.10;48.00;;;;;;5115059;28;20518;-65
2022/06/23 09:49:25;;;;;;;2.75;2.38;;;36.30;46.40;;;;;;5094376;28;20021;-66
2022/06/23 09:52:17;;;;;;;6.30;2.55;;;35.70;47.20;;;;;;5119357;28;20031;-65
2022/06/23 09:55:10;;;;;;;6.60;3.17;;;36.80;46.90;;;;;;5115902;27;20107;-63
2022/06/23 09:57:59;;;;;;;7.63;2.63;;;37.00;46.90;;;;;;5118368;28;20032;-65
2022/06/23 10:00:46;;;;;;;4.85;2.60;;;36.40;47.30;;;;;;5104901;28;20059;-67
2022/06/23 10:03:35;;;;;;;9.05;3.42;;;36.20;48.00;;;;;;5100565;28;20028;-66
2022/06/23 10:09:18;;;;;;;3.45;2.60;;;36.60;46.50;;;;;;5109279;27;20400;-66
2022/06/23 10:12:04;;;;;;;5.05;2.70;;;36.50;46.80;;;;;;5110786;28;20039;-66
2022/06/23 10:14:58;;;;;;;5.80;2.63;;;36.40;47.90;;;;;;5110272;28;20023;-65
2022/06/23 10:20:52;;;;;;;4.65;2.38;;;36.80;45.60;;;;;;5059152;28;20377;-66
2022/06/23 10:23:57;;;;;;;3.58;2.40;;;36.90;45.20;;;;;;5049088;28;20052;-66
2022/06/23 10:26:49;;;;;;;4.80;2.47;;;37.30;44.70;;;;;;5050273;28;20037;-64
2022/06/23 10:29:42;;;;;;;4.97;2.22;;;36.70;44.10;;;;;;5056585;28;20463;-64
2022/06/23 10:32:38;;;;;;;4.47;2.45;;;36.50;45.50;;;;;;5065607;28;20487;-63
2022/06/23 10:35:37;;;;;;;4.50;2.20;;;36.10;46.70;;;;;;5058624;28;20091;-63
2022/06/23 10:38:42;;;;;;;5.85;2.78;;;36.20;45.90;;;;;;5049495;28;20021;-63
2022/06/23 10:44:34;;;;;;;4.18;2.15;;;35.30;45.70;;;;;;5091473;27;20449;-63
2022/06/23 10:47:34;;;;;;;5.65;2.75;;;35.40;46.40;;;;;;5088273;28;20111;-63
2022/06/23 10:50:20;;;;;;;6.28;2.95;;;35.60;46.50;;;;;;5074362;28;20036;-64
2022/06/23 10:53:16;;;;;;;5.93;3.00;;;35.80;46.80;;;;;;5070047;28;20114;-66
2022/06/23 10:55:58;;;;;;;3.78;2.47;;;34.70;47.90;;;;;;5049601;28;20029;-63
2022/06/23 10:58:52;;;;;;;8.40;2.70;;;34.50;48.70;;;;;;5075383;28;20032;-63
2022/06/23 11:01:48;;;;;;;3.15;2.30;;;34.10;50.10;;;;;;5084783;28;20060;-63
2022/06/23 11:04:47;;;;;;;4.22;2.70;;;33.80;47.80;;;;;;5085203;28;20082;-65
2022/06/23 11:07:52;;;;;;;3.38;2.78;;;33.90;49.00;;;;;;5070340;28;20439;-64
2022/06/23 11:10:45;;;;;;;7.75;2.95;;;34.00;48.20;;;;;;5072945;28;20025;-64
2022/06/23 11:16:26;;;;;;;4.50;2.55;;;33.80;49.00;;;;;;5088174;28;20324;-65
2022/06/23 11:19:19;;;;;;;5.55;2.97;;;34.10;49.20;;;;;;5069794;28;20099;-65
2022/06/23 11:22:04;;;;;;;8.90;3.40;;;33.90;48.90;;;;;;5070358;28;20029;-65
2022/06/23 11:25:03;;;;;;;5.03;2.80;;;33.50;48.50;;;;;;5069488;28;20048;-65
2022/06/23 11:27:58;;;;;;;4.30;2.80;;;33.00;49.40;;;;;;5068208;28;20440;-65
2022/06/23 11:30:49;;;;;;;7.07;3.03;;;33.10;50.00;;;;;;5068958;28;20483;-65
2022/06/23 11:33:41;;;;;;;7.32;3.05;;;33.40;49.20;;;;;;5069821;28;20495;-65
2022/06/23 11:36:19;;;;;;;5.28;3.05;;;33.60;50.00;;;;;;5052615;28;20139;-65
2022/06/23 11:39:16;;;;;;;3.58;2.92;;;33.00;48.40;;;;;;5066054;28;20032;-65
2022/06/23 11:42:09;;;;;;;4.82;3.25;;;32.90;49.50;;;;;;5057392;28;20028;-65
2022/06/23 11:44:59;;;;;;;4.38;3.13;;;32.80;49.20;;;;;;5068653;28;20475;-65
2022/06/23 11:47:55;;;;;;;5.05;3.13;;;33.20;50.00;;;;;;5069257;28;20104;-65
2022/06/23 11:50:54;;;;;;;3.63;2.45;;;33.20;49.10;;;;;;5064511;28;20129;-65
2022/06/23 11:53:45;;;;;;;8.10;2.85;;;33.40;48.10;;;;;;5061404;28;20033;-65
2022/06/23 11:59:43;;;;;;;3.28;2.83;;;33.20;48.70;;;;;;5061366;28;20465;-65
2022/06/23 12:02:09;;;;;;;3.83;3.17;;;33.50;49.10;;;;;;5071347;28;20090;-67
2022/06/23 12:08:08;;;;;;;5.00;2.97;;;33.40;47.80;;;;;;5070548;28;20477;-63
2022/06/23 12:10:36;;;;;;;6.45;3.30;;;33.00;48.10;;;;;;5090335;28;20033;-65
2022/06/23 12:13:04;;;;;;;4.32;2.83;;;32.80;48.30;;;;;;5079634;28;20495;-65
2022/06/23 12:15:34;;;;;;;8.68;3.42;;;32.70;50.10;;;;;;5060755;28;20435;-63
2022/06/23 12:18:10;;;;;;;7.22;3.22;;;32.50;49.00;;;;;;5081184;28;20101;-64
2022/06/23 12:23:45;;;;;;;4.43;3.10;;;32.80;49.20;;;;;;5090005;28;20695;-65
2022/06/23 12:26:31;;;;;;;;;;;33.00;48.40;;;;;;5091753;28;20038;-66
2022/06/23 12:29:22;;;;;;;4.43;3.17;;;33.00;49.40;;;;;;5074495;28;19912;-65
2022/06/23 12:32:27;;;;;;;5.38;2.80;;;33.10;48.80;;;;;;5084045;28;20510;-65
2022/06/23 12:35:03;;;;;;;6.53;3.33;;;32.90;48.20;;;;;;5072359;28;20038;-65
2022/06/23 12:37:53;;;;;;;5.05;3.30;;;33.20;48.70;;;;;;5089799;28;20069;-65
2022/06/23 12:40:28;;;;;;;7.13;3.30;;;33.50;48.40;;;;;;5089258;28;20024;-65
2022/06/23 12:43:01;;;;;;;5.85;3.20;;;33.40;47.70;;;;;;5086468;28;20032;-65
2022/06/23 12:45:47;;;;;;;;;;;33.10;47.50;;;;;;5087007;28;20107;-65
2022/06/23 12:48:53;;;;;;;3.22;2.92;;;33.00;47.60;;;;;;5087304;28;19913;-65
2022/06/23 12:51:58;;;;;;;3.20;3.00;;;33.00;47.60;;;;;;5074684;28;20028;-63
2022/06/23 12:54:55;;;;;;;3.50;3.10;;;33.00;46.70;;;;;;5087487;28;20040;-63
2022/06/23 12:57:39;;;;;;;5.90;3.20;;;33.30;47.80;;;;;;5100687;28;20020;-64
2022/06/23 13:00:14;;;;;;;4.60;2.92;;;33.40;47.10;;;;;;5089004;28;20074;-63
2022/06/23 13:02:46;;;;;;;7.75;3.00;;;33.40;46.80;;;;;;5089199;28;20036;-64
2022/06/23 13:05:35;;;;;;;5.47;3.25;;;33.40;46.70;;;;;;5084778;28;20021;-64
2022/06/23 13:08:24;;;;;;;3.78;2.97;;;33.00;47.20;;;;;;5083607;28;20032;-63
2022/06/23 13:10:58;;;;;;;4.20;2.97;;;33.00;47.90;;;;;;5088020;28;20518;-64
2022/06/23 13:13:34;;;;;;;4.72;3.10;;;33.10;47.80;;;;;;5087929;28;20029;-64
2022/06/23 13:16:17;;;;;;;4.85;3.20;;;33.10;48.40;;;;;;5083002;28;20453;-64
2022/06/23 13:18:49;;;;;;;6.25;3.33;;;33.20;46.90;;;;;;5078581;28;20037;-64
2022/06/23 13:21:33;;;;;;;5.63;2.85;;;33.10;46.60;;;;;;5084127;28;20044;-64
2022/06/23 13:24:03;;;;;;;4.18;3.30;;;32.80;47.10;;;;;;5081128;28;20040;-64
2022/06/23 13:26:38;;;;;;;5.88;3.33;;;33.00;46.90;;;;;;5074516;28;20503;-64
2022/06/23 13:29:18;;;;;;;5.10;3.28;;;32.80;46.70;;;;;;5085826;28;20406;-64
2022/06/23 13:32:07;;;;;;;5.10;3.17;;;33.10;46.50;;;;;;5079463;28;20040;-64
2022/06/23 13:34:39;;;;;;;7.03;3.25;;;33.20;46.30;;;;;;5056376;28;20494;-64
2022/06/23 13:37:30;;;;;;;4.03;3.17;;;33.40;46.30;;;;;;5055210;28;20051;-63
2022/06/23 13:40:22;;;;;;;5.07;3.33;;;33.20;46.10;;;;;;5055685;28;20029;-64
2022/06/23 13:43:14;;;;;;;4.70;3.40;;;33.20;46.30;;;;;;5055358;28;20033;-64
2022/06/23 13:45:47;;;;;;;4.43;3.40;;;33.30;46.10;;;;;;5055139;28;20029;-64
2022/06/23 13:48:28;;;;;;;4.72;3.40;;;33.10;47.20;;;;;;5055501;28;20095;-63
2022/06/23 13:51:05;;;;;;;6.65;3.45;;;33.00;46.60;;;;;;5055652;28;20479;-63
2022/06/23 13:53:46;;;;;;;5.93;3.85;;;33.10;46.90;;;;;;5055679;28;20112;-64
2022/06/23 13:59:24;;;;;;;5.60;3.55;;;33.10;46.70;;;;;;5111033;27;20396;-66
2022/06/23 14:02:01;;;;;;;3.58;3.10;;;33.20;46.40;;;;;;5110686;28;20538;-63
2022/06/23 14:04:38;;;;;;;4.75;3.05;;;33.10;46.50;;;;;;5110875;28;20028;-63
2022/06/23 14:07:31;;;;;;;5.72;2.90;;;33.10;46.10;;;;;;5110841;28;20065;-63
2022/06/23 14:10:24;;;;;;;5.38;3.03;;;33.10;45.40;;;;;;5110604;28;20032;-63
2022/06/23 14:16:02;;;;;;;6.20;3.10;;;32.70;45.60;;;;;;5152177;27;20348;-65
2022/06/23 14:18:38;;;;;;;3.55;2.92;;;32.80;46.10;;;;;;5152102;27;20103;-65
2022/06/23 14:21:29;;;;;;;3.92;3.28;;;33.10;45.50;;;;;;5152259;27;20019;-66
2022/06/23 14:24:12;;;;;;;4.72;2.80;;;33.40;46.30;;;;;;5151847;27;20026;-66
2022/06/23 14:29:53;;;;;;;5.03;3.22;;;33.50;46.30;;;;;;5110897;27;20931;-63
2022/06/23 14:32:41;;;;;;;4.28;3.03;;;33.30;44.90;;;;;;5111049;28;20050;-63
2022/06/23 14:35:27;;;;;;;3.45;3.08;;;33.10;45.00;;;;;;5110984;28;20108;-64
2022/06/23 14:38:06;;;;;;;6.10;3.08;;;33.30;45.40;;;;;;5111044;28;20485;-63
2022/06/23 14:40:47;;;;;;;3.70;3.40;;;33.30;46.40;;;;;;5111125;28;20077;-63
2022/06/23 14:43:32;;;;;;;3.15;2.85;;;33.20;45.60;;;;;;5110695;28;20016;-63
2022/06/23 14:46:18;;;;;;;3.53;3.22;;;33.40;45.50;;;;;;5110718;28;20070;-63
2022/06/23 14:49:00;;;;;;;3.20;2.90;;;33.20;46.00;;;;;;5110556;28;20024;-63
2022/06/23 14:51:42;;;;;;;4.38;3.40;;;33.10;45.30;;;;;;5110789;28;20022;-63
2022/06/23 14:54:33;;;;;;;7.32;3.25;;;32.80;45.90;;;;;;5110722;28;20023;-63
2022/06/23 14:57:38;;;;;;;5.13;2.95;;;33.10;46.60;;;;;;5109083;28;20035;-63
2022/06/23 15:00:13;;;;;;;3.50;3.00;;;33.20;46.10;;;;;;5110316;28;20060;-64
2022/06/23 15:03:03;;;;;;;4.80;2.95;;;33.10;45.80;;;;;;5110666;28;20414;-64
2022/06/23 15:05:55;;;;;;;6.05;3.10;;;33.10;46.20;;;;;;5110347;28;20115;-64
2022/06/23 15:14:04;;;;;;;3.53;2.93;;;33.30;46.00;;;;;;5115072;27;1151642;-65
2022/06/23 15:16:41;;;;;;;3.42;3.05;;;33.10;46.60;;;;;;5131515;27;20019;-66
2022/06/23 15:19:30;;;;;;;5.53;3.30;;;33.10;45.40;;;;;;5131701;27;20031;-65
2022/06/23 15:25:46;;;;;;;3.42;3.10;;;33.10;46.20;;;;;;5131126;28;20035;-64
2022/06/23 15:34:05;;;;;;;4.78;3.05;;;33.10;47.00;;;;;;5070343;28;20365;-64